createdAt,value
2019-06-27T00:00:12.579Z,0.00
2019-06-27T00:01:12.563Z,0.00
2019-06-27T00:02:12.546Z,0.00
2019-06-27T00:03:12.531Z,0.00
2019-06-27T00:04:12.512Z,0.00
2019-06-27T00:05:12.495Z,0.00
2019-06-27T00:06:12.478Z,0.00
2019-06-27T00:07:12.462Z,0.00
2019-06-27T00:08:12.445Z,0.00
2019-06-27T00:09:12.428Z,0.00
2019-06-27T00:10:12.411Z,0.00
2019-06-27T00:11:12.397Z,0.00
2019-06-27T00:12:12.377Z,0.00
2019-06-27T00:13:12.362Z,0.00
2019-06-27T00:14:12.345Z,0.00
2019-06-27T00:15:12.336Z,0.00
2019-06-27T00:16:12.313Z,0.00
2019-06-27T00:17:12.293Z,0.00
2019-06-27T00:18:12.326Z,0.00
2019-06-27T00:19:12.258Z,0.00
2019-06-27T00:20:12.249Z,0.00
2019-06-27T00:21:12.227Z,0.00
2019-06-27T00:22:12.208Z,0.00
2019-06-27T00:23:12.191Z,0.00
2019-06-27T00:24:12.173Z,0.00
2019-06-27T00:25:12.160Z,0.00
2019-06-27T00:26:12.140Z,0.00
2019-06-27T00:27:12.124Z,0.00
2019-06-27T00:28:12.103Z,0.00
2019-06-27T00:29:12.089Z,0.00
2019-06-27T00:30:12.074Z,0.00
2019-06-27T00:31:12.058Z,0.00
2019-06-27T00:32:12.037Z,0.00
2019-06-27T00:33:12.020Z,0.00
2019-06-27T00:34:12.004Z,0.00
2019-06-27T00:35:11.989Z,0.00
2019-06-27T00:36:11.968Z,0.00
2019-06-27T00:37:11.952Z,0.00
2019-06-27T00:38:11.936Z,0.00
2019-06-27T00:39:11.920Z,0.00
2019-06-27T00:40:11.903Z,0.00
2019-06-27T00:41:11.884Z,0.00
2019-06-27T00:42:11.869Z,0.00
2019-06-27T00:43:11.850Z,0.00
2019-06-27T00:44:11.833Z,0.00
2019-06-27T00:45:11.815Z,0.00
2019-06-27T00:46:11.798Z,0.00
2019-06-27T00:47:11.782Z,0.00
2019-06-27T00:48:11.764Z,0.00
2019-06-27T00:49:11.747Z,0.00
2019-06-27T00:50:11.738Z,0.00
2019-06-27T00:51:11.717Z,0.00
2019-06-27T00:52:11.696Z,0.00
2019-06-27T00:53:11.678Z,0.00
2019-06-27T00:54:11.661Z,0.00
2019-06-27T00:55:11.644Z,0.00
2019-06-27T00:56:11.626Z,0.00
2019-06-27T00:57:14.561Z,0.00
2019-06-27T00:58:11.594Z,0.00
2019-06-27T00:59:11.574Z,0.00
2019-06-27T01:00:11.556Z,0.00
2019-06-27T01:01:11.539Z,0.00
2019-06-27T01:02:11.527Z,0.00
2019-06-27T01:03:11.506Z,0.00
2019-06-27T01:04:11.492Z,0.00
2019-06-27T01:05:11.470Z,0.00
2019-06-27T01:06:11.455Z,0.00
2019-06-27T01:07:11.435Z,0.00
2019-06-27T01:08:11.418Z,0.00
2019-06-27T01:09:11.401Z,0.00
2019-06-27T01:10:11.384Z,0.00
2019-06-27T01:11:11.366Z,0.00
2019-06-27T01:12:11.349Z,0.00
2019-06-27T01:13:11.331Z,0.00
2019-06-27T01:14:11.317Z,0.00
2019-06-27T01:15:11.298Z,0.00
2019-06-27T01:16:11.279Z,0.00
2019-06-27T01:17:11.262Z,0.00
2019-06-27T01:18:11.244Z,0.00
2019-06-27T01:19:11.228Z,0.00
2019-06-27T01:20:11.216Z,0.00
2019-06-27T01:21:11.194Z,0.00
2019-06-27T01:22:11.182Z,0.00
2019-06-27T01:23:11.157Z,0.00
2019-06-27T01:24:11.138Z,0.00
2019-06-27T01:25:11.122Z,0.00
2019-06-27T01:26:11.104Z,0.00
2019-06-27T01:27:11.086Z,0.00
2019-06-27T01:28:11.070Z,0.00
2019-06-27T01:29:11.051Z,0.00
2019-06-27T01:30:11.036Z,0.00
2019-06-27T01:31:11.019Z,0.00
2019-06-27T01:32:11.000Z,0.00
2019-06-27T01:33:10.982Z,0.00
2019-06-27T01:34:10.967Z,0.00
2019-06-27T01:35:10.948Z,0.00
2019-06-27T01:36:10.932Z,0.00
2019-06-27T01:37:10.913Z,0.00
2019-06-27T01:38:10.896Z,0.00
2019-06-27T01:39:10.924Z,0.00
2019-06-27T01:40:10.860Z,0.00
2019-06-27T01:41:10.841Z,0.00
2019-06-27T01:42:10.823Z,0.00
2019-06-27T01:43:10.809Z,0.00
2019-06-27T01:44:10.790Z,0.00
2019-06-27T01:45:10.771Z,0.00
2019-06-27T01:46:10.756Z,0.00
2019-06-27T01:47:10.736Z,0.00
2019-06-27T01:48:10.720Z,0.00
2019-06-27T01:49:10.702Z,0.00
2019-06-27T01:50:10.683Z,0.00
2019-06-27T01:51:10.674Z,0.00
2019-06-27T01:52:10.649Z,0.00
2019-06-27T01:53:10.629Z,0.00
2019-06-27T01:54:10.613Z,0.00
2019-06-27T01:55:10.597Z,0.00
2019-06-27T01:56:10.581Z,0.00
2019-06-27T01:57:10.561Z,0.00
2019-06-27T01:58:10.543Z,0.00
2019-06-27T01:59:10.526Z,0.00
2019-06-27T02:00:10.506Z,0.00
2019-06-27T02:01:10.494Z,0.00
2019-06-27T02:02:10.474Z,0.00
2019-06-27T02:03:10.454Z,0.00
2019-06-27T02:04:10.442Z,0.00
2019-06-27T02:05:10.420Z,0.00
2019-06-27T02:06:10.402Z,0.00
2019-06-27T02:07:10.387Z,0.00
2019-06-27T02:08:10.364Z,0.00
2019-06-27T02:09:10.349Z,0.00
2019-06-27T02:10:10.330Z,0.00
2019-06-27T02:11:10.318Z,0.00
2019-06-27T02:12:10.296Z,0.00
2019-06-27T02:13:10.280Z,0.00
2019-06-27T02:14:10.262Z,0.00
2019-06-27T02:15:10.243Z,0.00
2019-06-27T02:16:10.225Z,0.00
2019-06-27T02:17:10.206Z,0.00
2019-06-27T02:18:10.191Z,0.00
2019-06-27T02:19:10.173Z,0.00
2019-06-27T02:20:10.194Z,0.00
2019-06-27T02:21:10.136Z,0.00
2019-06-27T02:22:10.118Z,0.00
2019-06-27T02:23:10.102Z,0.00
2019-06-27T02:24:10.085Z,0.00
2019-06-27T02:25:10.070Z,0.00
2019-06-27T02:26:10.050Z,0.00
2019-06-27T02:27:10.031Z,0.00
2019-06-27T02:28:10.010Z,0.00
2019-06-27T02:29:10.001Z,0.00
2019-06-27T02:30:09.985Z,0.00
2019-06-27T02:31:09.982Z,0.00
2019-06-27T02:32:09.945Z,0.00
2019-06-27T02:33:09.927Z,0.00
2019-06-27T02:34:09.907Z,0.00
2019-06-27T02:35:09.890Z,0.00
2019-06-27T02:36:09.875Z,0.00
2019-06-27T02:37:09.854Z,0.00
2019-06-27T02:38:09.942Z,0.00
2019-06-27T02:39:09.821Z,0.00
2019-06-27T02:40:09.800Z,0.00
2019-06-27T02:41:09.786Z,4.00
2019-06-27T02:42:09.767Z,4.00
2019-06-27T02:43:09.755Z,4.00
2019-06-27T02:44:09.731Z,0.00
2019-06-27T02:45:09.721Z,0.00
2019-06-27T02:46:09.695Z,4.00
2019-06-27T02:47:09.678Z,4.00
2019-06-27T02:48:09.660Z,4.00
2019-06-27T02:49:09.647Z,4.00
2019-06-27T02:50:09.628Z,4.00
2019-06-27T02:51:09.608Z,4.00
2019-06-27T02:52:09.588Z,4.00
2019-06-27T02:53:09.573Z,4.00
2019-06-27T02:54:09.558Z,8.00
2019-06-27T02:55:09.537Z,8.00
2019-06-27T02:56:09.521Z,8.00
2019-06-27T02:57:09.505Z,12.00
2019-06-27T02:58:28.458Z,12.00
2019-06-27T02:59:09.470Z,12.00
2019-06-27T03:00:09.447Z,16.00
2019-06-27T03:01:09.431Z,16.00
2019-06-27T03:02:09.415Z,20.00
2019-06-27T03:03:09.403Z,20.00
2019-06-27T03:04:09.379Z,24.00
2019-06-27T03:05:09.362Z,28.00
2019-06-27T03:06:09.345Z,32.00
2019-06-27T03:07:09.330Z,32.00
2019-06-27T03:08:09.307Z,36.00
2019-06-27T03:09:09.306Z,36.00
2019-06-27T03:10:09.279Z,40.00
2019-06-27T03:11:09.255Z,44.00
2019-06-27T03:12:09.238Z,44.00
2019-06-27T03:13:09.223Z,48.00
2019-06-27T03:14:09.204Z,48.00
2019-06-27T03:15:09.199Z,52.00
2019-06-27T03:16:09.164Z,56.00
2019-06-27T03:17:09.161Z,60.00
2019-06-27T03:18:09.129Z,68.00
2019-06-27T03:19:09.124Z,68.00
2019-06-27T03:20:09.111Z,72.00
2019-06-27T03:21:09.086Z,76.00
2019-06-27T03:22:09.067Z,80.00
2019-06-27T03:23:09.066Z,88.00
2019-06-27T03:24:09.034Z,92.00
2019-06-27T03:25:09.007Z,100.00
2019-06-27T03:26:09.003Z,104.00
2019-06-27T03:27:08.971Z,108.00
2019-06-27T03:28:08.961Z,120.00
2019-06-27T03:29:08.935Z,120.00
2019-06-27T03:30:08.974Z,128.00
2019-06-27T03:31:08.908Z,140.00
2019-06-27T03:32:08.889Z,148.00
2019-06-27T03:33:08.869Z,156.00
2019-06-27T03:34:08.851Z,156.00
2019-06-27T03:35:08.830Z,152.00
2019-06-27T03:36:08.820Z,156.00
2019-06-27T03:37:08.796Z,160.00
2019-06-27T03:38:08.778Z,164.00
2019-06-27T03:39:08.759Z,172.00
2019-06-27T03:40:08.751Z,188.00
2019-06-27T03:41:08.723Z,200.00
2019-06-27T03:42:08.710Z,228.00
2019-06-27T03:43:08.689Z,248.00
2019-06-27T03:44:08.667Z,268.00
2019-06-27T03:45:08.653Z,292.00
2019-06-27T03:46:08.635Z,328.00
2019-06-27T03:47:08.617Z,352.00
2019-06-27T03:48:08.624Z,364.00
2019-06-27T03:49:08.584Z,364.00
2019-06-27T03:50:08.563Z,376.00
2019-06-27T03:51:08.545Z,388.00
2019-06-27T03:52:08.527Z,412.00
2019-06-27T03:53:08.509Z,448.00
2019-06-27T03:54:08.491Z,460.00
2019-06-27T03:55:08.481Z,464.00
2019-06-27T03:56:08.465Z,472.00
2019-06-27T03:57:08.439Z,488.00
2019-06-27T03:58:08.421Z,508.00
2019-06-27T03:59:13.188Z,528.00
2019-06-27T04:00:08.390Z,520.00
2019-06-27T04:01:08.378Z,548.00
2019-06-27T04:02:08.351Z,564.00
2019-06-27T04:03:08.335Z,568.00
2019-06-27T04:04:08.315Z,576.00
2019-06-27T04:05:08.302Z,600.00
2019-06-27T04:06:08.289Z,628.00
2019-06-27T04:07:08.266Z,656.00
2019-06-27T04:08:08.245Z,628.00
2019-06-27T04:09:08.226Z,676.00
2019-06-27T04:10:08.211Z,728.00
2019-06-27T04:11:08.193Z,764.00
2019-06-27T04:12:08.174Z,776.00
2019-06-27T04:13:08.174Z,816.00
2019-06-27T04:14:08.140Z,772.00
2019-06-27T04:15:08.144Z,780.00
2019-06-27T04:16:08.116Z,792.00
2019-06-27T04:17:08.100Z,840.00
2019-06-27T04:18:08.069Z,864.00
2019-06-27T04:19:08.054Z,860.00
2019-06-27T04:20:08.035Z,904.00
2019-06-27T04:21:08.018Z,988.00
2019-06-27T04:22:08.000Z,940.00
2019-06-27T04:23:07.989Z,944.00
2019-06-27T04:24:07.963Z,972.00
2019-06-27T04:25:07.949Z,972.00
2019-06-27T04:26:07.927Z,1020.00
2019-06-27T04:27:07.914Z,1028.00
2019-06-27T04:28:07.895Z,1024.00
2019-06-27T04:29:07.881Z,1056.00
2019-06-27T04:30:07.857Z,1140.00
2019-06-27T04:31:07.840Z,1116.00
2019-06-27T04:32:07.827Z,1092.00
2019-06-27T04:33:07.804Z,1040.00
2019-06-27T04:34:07.789Z,1096.00
2019-06-27T04:35:07.769Z,1064.00
2019-06-27T04:36:07.749Z,1168.00
2019-06-27T04:37:07.736Z,1196.00
2019-06-27T04:38:07.715Z,1196.00
2019-06-27T04:39:07.700Z,1196.00
2019-06-27T04:40:07.687Z,1144.00
2019-06-27T04:41:07.661Z,1176.00
2019-06-27T04:42:07.653Z,1200.00
2019-06-27T04:43:07.645Z,1296.00
2019-06-27T04:44:07.616Z,1312.00
2019-06-27T04:45:07.594Z,1296.00
2019-06-27T04:46:07.576Z,1348.00
2019-06-27T04:47:07.559Z,1416.00
2019-06-27T04:48:07.541Z,1548.00
2019-06-27T04:49:12.883Z,1560.00
2019-06-27T04:50:07.531Z,1568.00
2019-06-27T04:51:07.504Z,1648.00
2019-06-27T04:52:07.475Z,1600.00
2019-06-27T04:53:07.466Z,1664.00
2019-06-27T04:54:07.435Z,1736.00
2019-06-27T04:55:07.429Z,1748.00
2019-06-27T04:56:07.405Z,1792.00
2019-06-27T04:57:07.385Z,1948.00
2019-06-27T04:58:07.377Z,1952.00
2019-06-27T04:59:07.348Z,1920.00
2019-06-27T05:00:07.330Z,1816.00
2019-06-27T05:01:07.323Z,1908.00
2019-06-27T05:02:07.295Z,2020.00
2019-06-27T05:03:07.283Z,2076.00
2019-06-27T05:04:07.260Z,2120.00
2019-06-27T05:05:07.248Z,2168.00
2019-06-27T05:06:07.227Z,2288.00
2019-06-27T05:07:07.209Z,2436.00
2019-06-27T05:08:07.200Z,2620.00
2019-06-27T05:09:07.173Z,2512.00
2019-06-27T05:10:07.159Z,2524.00
2019-06-27T05:11:07.143Z,2600.00
2019-06-27T05:12:07.127Z,2552.00
2019-06-27T05:13:07.119Z,2444.00
2019-06-27T05:14:07.089Z,2580.00
2019-06-27T05:15:07.071Z,2748.00
2019-06-27T05:16:07.053Z,2684.00
2019-06-27T05:17:07.037Z,2680.00
2019-06-27T05:18:07.018Z,2732.00
2019-06-27T05:19:07.003Z,2672.00
2019-06-27T05:20:06.982Z,2704.00
2019-06-27T05:21:06.964Z,2868.00
2019-06-27T05:22:06.949Z,3084.00
2019-06-27T05:23:06.937Z,2880.00
2019-06-27T05:24:06.916Z,2728.00
2019-06-27T05:25:06.901Z,2632.00
2019-06-27T05:26:06.882Z,2720.00
2019-06-27T05:27:06.866Z,2724.00
2019-06-27T05:28:06.849Z,2668.00
2019-06-27T05:29:06.830Z,2572.00
2019-06-27T05:30:09.817Z,2528.00
2019-06-27T05:31:06.797Z,2636.00
2019-06-27T05:32:06.779Z,2804.00
2019-06-27T05:33:06.762Z,2848.00
2019-06-27T05:34:06.748Z,2860.00
2019-06-27T05:35:06.731Z,2860.00
2019-06-27T05:36:06.710Z,2832.00
2019-06-27T05:37:06.694Z,2912.00
2019-06-27T05:38:06.678Z,2992.00
2019-06-27T05:39:06.660Z,2980.00
2019-06-27T05:40:06.643Z,2792.00
2019-06-27T05:41:06.626Z,2900.00
2019-06-27T05:42:06.610Z,3072.00
2019-06-27T05:43:06.595Z,3372.00
2019-06-27T05:44:06.573Z,3088.00
2019-06-27T05:45:06.561Z,2800.00
2019-06-27T05:46:06.547Z,2684.00
2019-06-27T05:47:06.527Z,2892.00
2019-06-27T05:48:06.509Z,3128.00
2019-06-27T05:49:06.491Z,3192.00
2019-06-27T05:50:06.477Z,3188.00
2019-06-27T05:51:06.461Z,3272.00
2019-06-27T05:52:06.444Z,3300.00
2019-06-27T05:53:06.427Z,2972.00
2019-06-27T05:54:06.410Z,3040.00
2019-06-27T05:55:06.392Z,2760.00
2019-06-27T05:56:06.371Z,2864.00
2019-06-27T05:57:06.357Z,3024.00
2019-06-27T05:58:06.349Z,3276.00
2019-06-27T05:59:06.327Z,3388.00
2019-06-27T06:00:06.321Z,3140.00
2019-06-27T06:01:06.294Z,3260.00
2019-06-27T06:02:06.275Z,3512.00
2019-06-27T06:03:06.257Z,3552.00
2019-06-27T06:04:06.242Z,3616.00
2019-06-27T06:05:06.277Z,3800.00
2019-06-27T06:06:06.206Z,3948.00
2019-06-27T06:07:06.196Z,3772.00
2019-06-27T06:08:06.172Z,5992.00
2019-06-27T06:09:06.156Z,4496.00
2019-06-27T06:10:06.141Z,4000.00
2019-06-27T06:11:06.127Z,3856.00
2019-06-27T06:12:06.105Z,4208.00
2019-06-27T06:13:06.088Z,4344.00
2019-06-27T06:14:06.071Z,4320.00
2019-06-27T06:15:06.062Z,3508.00
2019-06-27T06:16:06.040Z,3052.00
2019-06-27T06:17:06.023Z,3516.00
2019-06-27T06:18:06.008Z,4344.00
2019-06-27T06:19:05.991Z,8292.00
2019-06-27T06:20:05.973Z,7700.00
2019-06-27T06:21:05.955Z,8712.00
2019-06-27T06:22:05.940Z,6684.00
2019-06-27T06:23:05.925Z,7056.00
2019-06-27T06:24:05.908Z,4328.00
2019-06-27T06:25:05.917Z,3588.00
2019-06-27T06:26:05.889Z,3844.00
2019-06-27T06:27:05.860Z,2964.00
2019-06-27T06:28:05.845Z,2620.00
2019-06-27T06:29:05.830Z,2584.00
2019-06-27T06:30:05.814Z,2880.00
2019-06-27T06:31:05.801Z,3188.00
2019-06-27T06:32:05.785Z,5364.00
2019-06-27T06:33:05.769Z,7092.00
2019-06-27T06:34:05.752Z,3328.00
2019-06-27T06:35:05.738Z,3088.00
2019-06-27T06:36:05.721Z,8116.00
2019-06-27T06:37:08.018Z,3908.00
2019-06-27T06:38:05.692Z,3188.00
2019-06-27T06:39:05.675Z,4740.00
2019-06-27T06:40:05.660Z,4436.00
2019-06-27T06:41:05.645Z,5888.00
2019-06-27T06:42:05.631Z,7124.00
2019-06-27T06:43:05.644Z,4464.00
2019-06-27T06:44:05.598Z,4276.00
2019-06-27T06:45:05.583Z,9128.00
2019-06-27T06:46:05.569Z,3936.00
2019-06-27T06:47:05.555Z,3276.00
2019-06-27T06:48:05.541Z,5364.00
2019-06-27T06:49:05.524Z,4868.00
2019-06-27T06:50:05.508Z,2640.00
2019-06-27T06:51:05.499Z,8480.00
2019-06-27T06:52:05.479Z,13504.00
2019-06-27T06:53:05.466Z,13184.00
2019-06-27T06:54:05.460Z,13344.00
2019-06-27T06:55:05.435Z,13760.00
2019-06-27T06:56:05.416Z,12704.00
2019-06-27T06:57:05.418Z,12364.00
2019-06-27T06:58:05.398Z,12220.00
2019-06-27T06:59:05.383Z,13376.00
2019-06-27T07:00:05.368Z,14016.00
2019-06-27T07:01:05.378Z,12800.00
2019-06-27T07:02:05.339Z,12544.00
2019-06-27T07:03:05.333Z,13760.00
2019-06-27T07:04:05.317Z,15872.00
2019-06-27T07:05:05.306Z,17248.00
2019-06-27T07:06:05.296Z,17120.00
2019-06-27T07:07:05.356Z,17984.00
2019-06-27T07:08:05.272Z,19072.00
2019-06-27T07:09:05.260Z,19456.00
2019-06-27T07:10:05.242Z,19232.00
2019-06-27T07:11:05.238Z,18976.00
2019-06-27T07:12:05.229Z,19328.00
2019-06-27T07:13:05.214Z,19232.00
2019-06-27T07:14:05.498Z,21216.00
2019-06-27T07:15:05.191Z,19552.00
2019-06-27T07:16:05.284Z,16064.00
2019-06-27T07:17:05.170Z,11004.00
2019-06-27T07:18:05.164Z,5008.00
2019-06-27T07:19:05.175Z,2352.00
2019-06-27T07:20:05.149Z,2156.00
2019-06-27T07:21:05.141Z,2048.00
2019-06-27T07:22:05.165Z,1992.00
2019-06-27T07:23:05.112Z,1948.00
2019-06-27T07:24:05.119Z,1892.00
2019-06-27T07:25:05.106Z,1844.00
2019-06-27T07:26:05.103Z,1816.00
2019-06-27T07:27:05.088Z,1792.00
2019-06-27T07:28:05.089Z,1772.00
2019-06-27T07:29:05.060Z,1736.00
2019-06-27T07:30:05.057Z,1724.00
2019-06-27T07:31:17.219Z,1724.00
2019-06-27T07:32:05.028Z,1728.00
2019-06-27T07:33:05.040Z,1732.00
2019-06-27T07:34:05.008Z,1720.00
2019-06-27T07:35:05.012Z,1708.00
2019-06-27T07:36:05.003Z,1692.00
2019-06-27T07:37:04.991Z,1676.00
2019-06-27T07:38:04.969Z,1676.00
2019-06-27T07:39:04.963Z,1660.00
2019-06-27T07:40:04.961Z,1672.00
2019-06-27T07:41:04.933Z,1672.00
2019-06-27T07:42:04.925Z,1672.00
2019-06-27T07:43:04.920Z,1672.00
2019-06-27T07:44:04.928Z,1672.00
2019-06-27T07:45:04.895Z,1668.00
2019-06-27T07:46:04.892Z,1652.00
2019-06-27T07:47:04.869Z,1644.00
2019-06-27T07:48:04.864Z,1652.00
2019-06-27T07:49:04.851Z,1648.00
2019-06-27T07:50:04.820Z,1664.00
2019-06-27T07:51:04.823Z,1660.00
2019-06-27T07:52:04.801Z,1660.00
2019-06-27T07:53:04.803Z,1664.00
2019-06-27T07:54:04.790Z,1668.00
2019-06-27T07:55:04.773Z,1660.00
2019-06-27T07:56:04.745Z,1644.00
2019-06-27T07:57:04.721Z,1648.00
2019-06-27T07:58:04.697Z,1664.00
2019-06-27T07:59:04.697Z,1680.00
2019-06-27T08:00:04.726Z,1684.00
2019-06-27T08:01:04.700Z,1680.00
2019-06-27T08:02:04.657Z,1684.00
2019-06-27T08:03:04.646Z,1668.00
2019-06-27T08:04:04.632Z,1652.00
2019-06-27T08:05:04.626Z,1652.00
2019-06-27T08:06:04.595Z,1648.00
2019-06-27T08:07:04.566Z,1648.00
2019-06-27T08:08:04.654Z,1672.00
2019-06-27T08:09:04.571Z,1672.00
2019-06-27T08:10:04.575Z,1680.00
2019-06-27T08:11:04.538Z,1688.00
2019-06-27T08:12:04.539Z,1700.00
2019-06-27T08:13:04.481Z,1688.00
2019-06-27T08:14:04.522Z,1692.00
2019-06-27T08:15:04.478Z,1700.00
2019-06-27T08:16:04.435Z,1708.00
2019-06-27T08:17:04.421Z,1704.00
2019-06-27T08:18:04.416Z,1708.00
2019-06-27T08:19:04.405Z,1716.00
2019-06-27T08:20:04.383Z,1724.00
2019-06-27T08:21:04.372Z,1728.00
2019-06-27T08:22:04.349Z,1716.00
2019-06-27T08:23:04.416Z,1704.00
2019-06-27T08:24:04.480Z,1708.00
2019-06-27T08:25:04.313Z,1704.00
2019-06-27T08:26:04.618Z,1700.00
2019-06-27T08:27:04.458Z,1692.00
2019-06-27T08:28:04.267Z,1684.00
2019-06-27T08:29:04.250Z,1684.00
2019-06-27T08:30:08.049Z,1680.00
2019-06-27T08:31:04.220Z,1684.00
2019-06-27T08:32:04.214Z,1676.00
2019-06-27T08:33:04.192Z,1688.00
2019-06-27T08:34:04.212Z,1704.00
2019-06-27T08:35:04.161Z,1724.00
2019-06-27T08:36:04.153Z,1728.00
2019-06-27T08:37:04.138Z,1728.00
2019-06-27T08:38:04.120Z,1716.00
2019-06-27T08:39:04.105Z,1700.00
2019-06-27T08:40:04.089Z,1692.00
2019-06-27T08:41:04.086Z,1692.00
2019-06-27T08:42:04.058Z,1684.00
2019-06-27T08:43:04.095Z,1684.00
2019-06-27T08:44:04.038Z,1676.00
2019-06-27T08:45:04.032Z,1672.00
2019-06-27T08:46:04.092Z,1684.00
2019-06-27T08:47:03.983Z,1692.00
2019-06-27T08:48:03.989Z,1704.00
2019-06-27T08:49:03.963Z,1716.00
2019-06-27T08:50:03.941Z,1724.00
2019-06-27T08:51:03.937Z,1728.00
2019-06-27T08:52:03.914Z,1716.00
2019-06-27T08:53:03.897Z,1728.00
2019-06-27T08:54:03.879Z,1732.00
2019-06-27T08:55:03.892Z,1756.00
2019-06-27T08:56:03.850Z,1756.00
2019-06-27T08:57:03.871Z,1764.00
2019-06-27T08:58:03.881Z,1760.00
2019-06-27T08:59:03.808Z,1764.00
2019-06-27T09:00:03.796Z,1772.00
2019-06-27T09:01:03.784Z,1776.00
2019-06-27T09:02:08.740Z,1784.00
2019-06-27T09:03:03.756Z,1792.00
2019-06-27T09:04:03.757Z,1800.00
2019-06-27T09:05:03.732Z,1804.00
2019-06-27T09:06:03.744Z,1816.00
2019-06-27T09:07:03.757Z,1812.00
2019-06-27T09:08:03.692Z,1800.00
2019-06-27T09:09:03.677Z,1784.00
2019-06-27T09:10:03.670Z,1776.00
2019-06-27T09:11:03.694Z,1788.00
2019-06-27T09:12:03.628Z,1796.00
2019-06-27T09:13:03.620Z,1796.00
2019-06-27T09:14:03.599Z,1812.00
2019-06-27T09:15:03.583Z,1816.00
2019-06-27T09:16:03.587Z,1820.00
2019-06-27T09:17:03.575Z,1812.00
2019-06-27T09:18:03.539Z,1800.00
2019-06-27T09:19:03.528Z,1800.00
2019-06-27T09:20:03.523Z,1800.00
2019-06-27T09:21:03.499Z,1812.00
2019-06-27T09:22:03.488Z,1820.00
2019-06-27T09:23:03.470Z,1828.00
2019-06-27T09:24:03.458Z,1824.00
2019-06-27T09:25:03.485Z,1820.00
2019-06-27T09:26:03.445Z,1820.00
2019-06-27T09:27:03.427Z,1820.00
2019-06-27T09:28:03.425Z,1832.00
2019-06-27T09:29:03.390Z,1812.00
2019-06-27T09:30:03.387Z,1812.00
2019-06-27T09:31:03.367Z,1836.00
2019-06-27T09:32:03.353Z,1848.00
2019-06-27T09:33:03.333Z,1852.00
2019-06-27T09:34:03.342Z,1860.00
2019-06-27T09:35:03.338Z,1872.00
2019-06-27T09:36:03.282Z,1868.00
2019-06-27T09:37:03.280Z,1864.00
2019-06-27T09:38:03.278Z,1868.00
2019-06-27T09:39:03.243Z,1860.00
2019-06-27T09:40:03.238Z,1856.00
2019-06-27T09:41:03.234Z,1836.00
2019-06-27T09:42:03.603Z,1820.00
2019-06-27T09:43:03.185Z,1816.00
2019-06-27T09:44:03.173Z,1832.00
2019-06-27T09:45:03.177Z,1840.00
2019-06-27T09:46:03.149Z,1852.00
2019-06-27T09:47:03.153Z,1848.00
2019-06-27T09:48:03.112Z,1844.00
2019-06-27T09:49:03.109Z,1836.00
2019-06-27T09:50:03.945Z,1840.00
2019-06-27T09:51:03.075Z,1836.00
2019-06-27T09:52:03.091Z,1832.00
2019-06-27T09:53:03.072Z,1824.00
2019-06-27T09:54:03.030Z,1808.00
2019-06-27T09:55:03.045Z,1812.00
2019-06-27T09:56:03.037Z,1812.00
2019-06-27T09:57:03.022Z,1828.00
2019-06-27T09:58:03.014Z,1832.00
2019-06-27T09:59:02.995Z,1836.00
2019-06-27T10:00:02.956Z,1832.00
2019-06-27T10:01:05.860Z,1828.00
2019-06-27T10:02:02.951Z,1820.00
2019-06-27T10:03:02.918Z,1812.00
2019-06-27T10:04:02.906Z,1800.00
2019-06-27T10:05:02.924Z,1796.00
2019-06-27T10:06:02.900Z,1792.00
2019-06-27T10:07:02.867Z,1808.00
2019-06-27T10:08:02.881Z,1800.00
2019-06-27T10:09:02.830Z,1796.00
2019-06-27T10:10:02.834Z,1800.00
2019-06-27T10:11:02.814Z,1804.00
2019-06-27T10:12:02.806Z,1812.00
2019-06-27T10:13:02.771Z,1812.00
2019-06-27T10:14:02.766Z,1824.00
2019-06-27T10:15:02.780Z,1824.00
2019-06-27T10:16:02.732Z,1824.00
2019-06-27T10:17:02.716Z,1820.00
2019-06-27T10:18:02.756Z,1816.00
2019-06-27T10:19:02.729Z,1824.00
2019-06-27T10:20:02.696Z,1828.00
2019-06-27T10:21:02.659Z,1840.00
2019-06-27T10:22:02.651Z,1840.00
2019-06-27T10:23:02.644Z,1844.00
2019-06-27T10:24:02.686Z,1844.00
2019-06-27T10:25:02.615Z,1848.00
2019-06-27T10:26:02.619Z,1856.00
2019-06-27T10:27:02.593Z,1860.00
2019-06-27T10:28:02.573Z,1872.00
2019-06-27T10:29:02.629Z,1872.00
2019-06-27T10:30:02.691Z,1872.00
2019-06-27T10:31:02.535Z,1896.00
2019-06-27T10:32:02.512Z,1916.00
2019-06-27T10:33:02.507Z,1936.00
2019-06-27T10:34:02.494Z,1940.00
2019-06-27T10:35:02.471Z,1924.00
2019-06-27T10:36:02.468Z,1920.00
2019-06-27T10:37:02.442Z,1936.00
2019-06-27T10:38:02.438Z,1964.00
2019-06-27T10:39:02.424Z,1996.00
2019-06-27T10:40:02.411Z,2004.00
2019-06-27T10:41:02.399Z,1992.00
2019-06-27T10:42:02.391Z,1984.00
2019-06-27T10:43:02.368Z,1992.00
2019-06-27T10:44:02.354Z,2008.00
2019-06-27T10:45:02.349Z,2016.00
2019-06-27T10:46:02.349Z,2016.00
2019-06-27T10:47:02.329Z,2020.00
2019-06-27T10:48:02.305Z,2044.00
2019-06-27T10:49:02.437Z,2064.00
2019-06-27T10:50:02.282Z,2052.00
2019-06-27T10:51:02.747Z,2048.00
2019-06-27T10:52:02.261Z,2024.00
2019-06-27T10:53:02.251Z,1984.00
2019-06-27T10:54:02.277Z,1976.00
2019-06-27T10:55:02.220Z,1976.00
2019-06-27T10:56:02.206Z,1992.00
2019-06-27T10:57:02.187Z,2008.00
2019-06-27T10:58:02.194Z,2016.00
2019-06-27T10:59:02.195Z,2044.00
2019-06-27T11:00:02.221Z,2064.00
2019-06-27T11:01:02.153Z,2068.00
2019-06-27T11:02:02.130Z,2092.00
2019-06-27T11:03:15.020Z,2116.00
2019-06-27T11:04:02.116Z,2124.00
2019-06-27T11:05:02.083Z,2120.00
2019-06-27T11:06:02.082Z,2144.00
2019-06-27T11:07:02.077Z,2152.00
2019-06-27T11:08:02.068Z,2176.00
2019-06-27T11:09:02.115Z,2176.00
2019-06-27T11:10:02.063Z,2180.00
2019-06-27T11:11:02.044Z,2168.00
2019-06-27T11:12:02.170Z,2172.00
2019-06-27T11:13:01.996Z,2184.00
2019-06-27T11:14:01.995Z,2176.00
2019-06-27T11:15:01.971Z,2168.00
2019-06-27T11:16:01.981Z,2152.00
2019-06-27T11:17:01.980Z,2140.00
2019-06-27T11:18:01.930Z,2140.00
2019-06-27T11:19:01.909Z,2128.00
2019-06-27T11:20:01.919Z,2136.00
2019-06-27T11:21:01.899Z,2144.00
2019-06-27T11:22:01.897Z,2132.00
2019-06-27T11:23:01.901Z,2124.00
2019-06-27T11:24:01.841Z,2124.00
2019-06-27T11:25:02.126Z,2132.00
2019-06-27T11:26:01.812Z,2128.00
2019-06-27T11:27:01.803Z,2136.00
2019-06-27T11:28:01.787Z,2128.00
2019-06-27T11:29:01.785Z,2124.00
2019-06-27T11:30:01.820Z,2140.00
2019-06-27T11:31:01.781Z,2144.00
2019-06-27T11:32:01.750Z,2148.00
2019-06-27T11:33:01.724Z,2140.00
2019-06-27T11:34:01.728Z,2140.00
2019-06-27T11:35:01.813Z,2140.00
2019-06-27T11:36:01.690Z,2144.00
2019-06-27T11:37:01.675Z,2148.00
2019-06-27T11:38:01.668Z,2164.00
2019-06-27T11:39:01.656Z,2184.00
2019-06-27T11:40:01.786Z,2184.00
2019-06-27T11:41:01.630Z,2192.00
2019-06-27T11:42:01.650Z,2204.00
2019-06-27T11:43:01.666Z,2208.00
2019-06-27T11:44:01.588Z,2204.00
2019-06-27T11:45:01.576Z,2208.00
2019-06-27T11:46:01.615Z,2208.00
2019-06-27T11:47:01.555Z,2212.00
2019-06-27T11:48:01.541Z,2232.00
2019-06-27T11:49:01.519Z,2240.00
2019-06-27T11:50:01.512Z,2240.00
2019-06-27T11:51:01.529Z,2244.00
2019-06-27T11:52:01.511Z,2252.00
2019-06-27T11:53:01.489Z,2264.00
2019-06-27T11:54:01.494Z,2272.00
2019-06-27T11:55:01.543Z,2272.00
2019-06-27T11:56:01.462Z,2280.00
2019-06-27T11:57:01.435Z,2284.00
2019-06-27T11:58:01.420Z,2288.00
2019-06-27T11:59:01.405Z,2308.00
2019-06-27T12:00:01.484Z,2312.00
2019-06-27T12:01:01.384Z,2312.00
2019-06-27T12:02:01.368Z,2312.00
2019-06-27T12:03:01.458Z,2332.00
2019-06-27T12:04:01.350Z,2352.00
2019-06-27T12:05:01.377Z,2364.00
2019-06-27T12:06:01.334Z,2360.00
2019-06-27T12:07:01.309Z,2364.00
2019-06-27T12:08:01.290Z,2372.00
2019-06-27T12:09:01.281Z,2380.00
2019-06-27T12:10:01.296Z,2376.00
2019-06-27T12:11:01.266Z,2372.00
2019-06-27T12:12:01.260Z,2380.00
2019-06-27T12:13:01.259Z,2392.00
2019-06-27T12:14:01.228Z,2420.00
2019-06-27T12:15:01.329Z,2452.00
2019-06-27T12:16:01.202Z,2460.00
2019-06-27T12:17:01.185Z,2472.00
2019-06-27T12:18:01.170Z,2476.00
2019-06-27T12:19:01.162Z,2500.00
2019-06-27T12:20:01.170Z,2532.00
2019-06-27T12:21:01.136Z,2576.00
2019-06-27T12:22:01.186Z,2612.00
2019-06-27T12:23:01.120Z,2648.00
2019-06-27T12:24:01.127Z,2660.00